Niangua, Missouri
Current Conditions -  °F | °C
As of 7:52 AM on Sunday 23 Nov 2014 (Local Time) from KSGF Reporting Station
Overcast Overcast  
Wind Chill: 54°   Ceiling: 700
Heat Index: 54°   Visibility: 9mi
Dew Point: 52°   Wind: 10mph
Humidity: 93%   Direction: 160°SSE
Pressure: 29.57"   Gusts: NA
Location:  37.39°N, 92.83°W
Report Text: KSGF 231352Z 16009KT 9SM OVC007 12/11 A2957 RMK AO2 SLP011 T01220111
Loading
Personal Weather Stations






























Interactive Weather Map New forecast layout! Learn more

10-Day Weather Forecast

Advertisements
Track Severe Weather on mobile